Timberline Lodge, Oregon
Current Conditions -  °F | °C
As of 11:59 AM on Friday 31 Oct 2014 (Local Time) from K4S2 Reporting Station
Overcast Overcast  
Wind Chill: 52°   Ceiling: 4800
Heat Index: 52°   Visibility: 10mi
Dew Point: 46°   Wind: 7mph
Humidity: 82%   Direction: 280°W
Pressure: 29.83"   Gusts: NA
Location:  45.2658°N, 121.797°W
Report Text: K4S2 311859Z AUTO 28006KT 10SM BKN048 OVC110 11/08 A2983 RMK AO2 SLP112 T01100080
Loading
Personal Weather Stations






























Interactive Weather Map
Tropical Storm Tracking
New forecast layout! Learn more

10-Day Weather Forecast

Advertisements
Track Severe Weather on mobile